sensor_id;sensor_type;location;lat;lon;timestamp;P1;durP1;ratioP1;P2;durP2;ratioP2
49217;SDS011;35045;51.194;7.268;2022-12-20T00:00:49;9.85;;;5.28;;
49217;SDS011;35045;51.194;7.268;2022-12-20T00:03:15;9.43;;;5.18;;
49217;SDS011;35045;51.194;7.268;2022-12-20T00:05:42;9.10;;;4.55;;
49217;SDS011;35045;51.194;7.268;2022-12-20T00:08:09;10.65;;;4.97;;
49217;SDS011;35045;51.194;7.268;2022-12-20T00:10:36;8.10;;;5.15;;
49217;SDS011;35045;51.194;7.268;2022-12-20T00:13:03;8.30;;;4.63;;
49217;SDS011;35045;51.194;7.268;2022-12-20T00:15:29;7.63;;;4.38;;
49217;SDS011;35045;51.194;7.268;2022-12-20T00:17:56;9.90;;;5.05;;
49217;SDS011;35045;51.194;7.268;2022-12-20T00:20:23;9.90;;;4.72;;
49217;SDS011;35045;51.194;7.268;2022-12-20T00:22:50;8.82;;;4.70;;
49217;SDS011;35045;51.194;7.268;2022-12-20T00:25:16;7.55;;;4.40;;
49217;SDS011;35045;51.194;7.268;2022-12-20T00:27:43;9.95;;;5.18;;
49217;SDS011;35045;51.194;7.268;2022-12-20T00:30:09;9.18;;;5.03;;
49217;SDS011;35045;51.194;7.268;2022-12-20T00:32:36;10.90;;;4.97;;
49217;SDS011;35045;51.194;7.268;2022-12-20T00:35:02;7.18;;;4.25;;
49217;SDS011;35045;51.194;7.268;2022-12-20T00:37:29;8.57;;;4.72;;
49217;SDS011;35045;51.194;7.268;2022-12-20T00:39:55;8.52;;;4.55;;
49217;SDS011;35045;51.194;7.268;2022-12-20T00:42:21;6.53;;;4.30;;
49217;SDS011;35045;51.194;7.268;2022-12-20T00:44:47;8.65;;;4.25;;
49217;SDS011;35045;51.194;7.268;2022-12-20T00:47:13;8.30;;;4.05;;
49217;SDS011;35045;51.194;7.268;2022-12-20T00:49:40;7.55;;;4.07;;
49217;SDS011;35045;51.194;7.268;2022-12-20T00:52:06;9.10;;;4.55;;
49217;SDS011;35045;51.194;7.268;2022-12-20T00:54:32;9.15;;;3.97;;
49217;SDS011;35045;51.194;7.268;2022-12-20T00:56:58;7.20;;;4.47;;
49217;SDS011;35045;51.194;7.268;2022-12-20T00:59:24;7.53;;;4.00;;
49217;SDS011;35045;51.194;7.268;2022-12-20T01:01:51;7.82;;;4.30;;
49217;SDS011;35045;51.194;7.268;2022-12-20T01:04:17;8.77;;;5.03;;
49217;SDS011;35045;51.194;7.268;2022-12-20T01:06:43;8.20;;;4.85;;
49217;SDS011;35045;51.194;7.268;2022-12-20T01:09:10;9.15;;;4.85;;
49217;SDS011;35045;51.194;7.268;2022-12-20T01:11:37;7.80;;;4.45;;
49217;SDS011;35045;51.194;7.268;2022-12-20T01:14:09;8.43;;;4.40;;
49217;SDS011;35045;51.194;7.268;2022-12-20T01:16:41;8.57;;;4.60;;
49217;SDS011;35045;51.194;7.268;2022-12-20T01:19:10;7.97;;;4.75;;
49217;SDS011;35045;51.194;7.268;2022-12-20T01:21:38;8.30;;;4.75;;
49217;SDS011;35045;51.194;7.268;2022-12-20T01:24:09;8.98;;;5.20;;
49217;SDS011;35045;51.194;7.268;2022-12-20T01:26:36;7.78;;;4.50;;
49217;SDS011;35045;51.194;7.268;2022-12-20T01:29:02;8.32;;;4.85;;
49217;SDS011;35045;51.194;7.268;2022-12-20T01:31:28;8.40;;;4.45;;
49217;SDS011;35045;51.194;7.268;2022-12-20T01:33:55;9.75;;;4.97;;
49217;SDS011;35045;51.194;7.268;2022-12-20T01:36:22;9.05;;;4.45;;
49217;SDS011;35045;51.194;7.268;2022-12-20T01:38:54;9.20;;;4.80;;
49217;SDS011;35045;51.194;7.268;2022-12-20T01:41:22;8.10;;;5.15;;
49217;SDS011;35045;51.194;7.268;2022-12-20T01:46:23;9.18;;;5.10;;
49217;SDS011;35045;51.194;7.268;2022-12-20T01:48:53;10.40;;;5.32;;
49217;SDS011;35045;51.194;7.268;2022-12-20T01:51:36;8.35;;;4.90;;
49217;SDS011;35045;51.194;7.268;2022-12-20T01:54:06;8.40;;;5.03;;
49217;SDS011;35045;51.194;7.268;2022-12-20T01:56:37;8.45;;;5.32;;
49217;SDS011;35045;51.194;7.268;2022-12-20T01:59:05;10.60;;;5.70;;
49217;SDS011;35045;51.194;7.268;2022-12-20T02:01:32;9.75;;;5.68;;
49217;SDS011;35045;51.194;7.268;2022-12-20T02:03:59;8.80;;;5.45;;
49217;SDS011;35045;51.194;7.268;2022-12-20T02:06:26;8.98;;;5.70;;
49217;SDS011;35045;51.194;7.268;2022-12-20T02:08:53;9.65;;;5.25;;
49217;SDS011;35045;51.194;7.268;2022-12-20T02:25:35;10.05;;;6.30;;
49217;SDS011;35045;51.194;7.268;2022-12-20T02:28:29;10.70;;;6.57;;
49217;SDS011;35045;51.194;7.268;2022-12-20T02:31:18;10.27;;;6.07;;
49217;SDS011;35045;51.194;7.268;2022-12-20T02:33:50;8.48;;;5.80;;
49217;SDS011;35045;51.194;7.268;2022-12-20T02:36:19;10.88;;;6.38;;
49217;SDS011;35045;51.194;7.268;2022-12-20T02:38:45;10.57;;;6.45;;
49217;SDS011;35045;51.194;7.268;2022-12-20T02:41:19;12.55;;;6.63;;
49217;SDS011;35045;51.194;7.268;2022-12-20T02:43:56;11.02;;;7.05;;
49217;SDS011;35045;51.194;7.268;2022-12-20T02:46:44;10.70;;;6.07;;
49217;SDS011;35045;51.194;7.268;2022-12-20T02:49:13;10.93;;;6.63;;
49217;SDS011;35045;51.194;7.268;2022-12-20T02:51:42;9.93;;;6.00;;
49217;SDS011;35045;51.194;7.268;2022-12-20T02:54:12;10.10;;;6.88;;
49217;SDS011;35045;51.194;7.268;2022-12-20T02:56:44;12.38;;;7.20;;
49217;SDS011;35045;51.194;7.268;2022-12-20T02:59:20;9.60;;;6.00;;
49217;SDS011;35045;51.194;7.268;2022-12-20T03:01:53;9.95;;;6.85;;
49217;SDS011;35045;51.194;7.268;2022-12-20T03:04:24;10.05;;;6.45;;
49217;SDS011;35045;51.194;7.268;2022-12-20T03:07:00;9.75;;;6.55;;
49217;SDS011;35045;51.194;7.268;2022-12-20T03:09:35;9.75;;;6.75;;
49217;SDS011;35045;51.194;7.268;2022-12-20T03:12:08;11.10;;;6.25;;
49217;SDS011;35045;51.194;7.268;2022-12-20T03:14:39;11.38;;;6.68;;
49217;SDS011;35045;51.194;7.268;2022-12-20T03:17:06;9.85;;;6.53;;
49217;SDS011;35045;51.194;7.268;2022-12-20T03:19:33;9.02;;;6.28;;
49217;SDS011;35045;51.194;7.268;2022-12-20T03:21:59;11.27;;;6.97;;
49217;SDS011;35045;51.194;7.268;2022-12-20T03:24:26;11.65;;;6.88;;
49217;SDS011;35045;51.194;7.268;2022-12-20T03:26:52;11.00;;;7.03;;
49217;SDS011;35045;51.194;7.268;2022-12-20T03:29:18;12.40;;;6.40;;
49217;SDS011;35045;51.194;7.268;2022-12-20T03:31:44;9.63;;;6.13;;
49217;SDS011;35045;51.194;7.268;2022-12-20T03:34:10;9.13;;;6.15;;
49217;SDS011;35045;51.194;7.268;2022-12-20T03:36:37;9.77;;;6.53;;
49217;SDS011;35045;51.194;7.268;2022-12-20T03:39:03;10.15;;;6.40;;
49217;SDS011;35045;51.194;7.268;2022-12-20T03:41:29;10.27;;;6.40;;
49217;SDS011;35045;51.194;7.268;2022-12-20T03:43:55;12.05;;;6.45;;
49217;SDS011;35045;51.194;7.268;2022-12-20T03:46:21;11.88;;;6.55;;
49217;SDS011;35045;51.194;7.268;2022-12-20T03:48:47;12.15;;;6.10;;
49217;SDS011;35045;51.194;7.268;2022-12-20T03:51:14;9.63;;;6.03;;
49217;SDS011;35045;51.194;7.268;2022-12-20T03:53:40;9.30;;;5.70;;
49217;SDS011;35045;51.194;7.268;2022-12-20T03:56:06;10.43;;;6.72;;
49217;SDS011;35045;51.194;7.268;2022-12-20T03:58:32;10.38;;;6.32;;
49217;SDS011;35045;51.194;7.268;2022-12-20T04:00:58;10.93;;;6.72;;
49217;SDS011;35045;51.194;7.268;2022-12-20T04:03:25;9.38;;;6.30;;
49217;SDS011;35045;51.194;7.268;2022-12-20T04:05:51;10.15;;;6.30;;
49217;SDS011;35045;51.194;7.268;2022-12-20T04:08:17;12.68;;;6.25;;
49217;SDS011;35045;51.194;7.268;2022-12-20T04:10:43;9.98;;;6.18;;
49217;SDS011;35045;51.194;7.268;2022-12-20T04:13:28;9.45;;;5.93;;
49217;SDS011;35045;51.194;7.268;2022-12-20T04:15:54;10.60;;;5.70;;
49217;SDS011;35045;51.194;7.268;2022-12-20T04:18:24;11.38;;;6.88;;
49217;SDS011;35045;51.194;7.268;2022-12-20T04:20:53;11.00;;;6.40;;
49217;SDS011;35045;51.194;7.268;2022-12-20T04:23:19;8.88;;;5.90;;
49217;SDS011;35045;51.194;7.268;2022-12-20T04:25:46;9.32;;;5.97;;
49217;SDS011;35045;51.194;7.268;2022-12-20T04:28:12;10.75;;;6.43;;
49217;SDS011;35045;51.194;7.268;2022-12-20T04:30:38;9.48;;;5.30;;
49217;SDS011;35045;51.194;7.268;2022-12-20T04:33:04;12.40;;;6.30;;
49217;SDS011;35045;51.194;7.268;2022-12-20T04:35:30;9.88;;;5.78;;
49217;SDS011;35045;51.194;7.268;2022-12-20T04:37:57;8.25;;;5.97;;
49217;SDS011;35045;51.194;7.268;2022-12-20T04:40:23;9.65;;;6.07;;
49217;SDS011;35045;51.194;7.268;2022-12-20T04:42:49;9.68;;;5.85;;
49217;SDS011;35045;51.194;7.268;2022-12-20T04:45:15;11.98;;;6.35;;
49217;SDS011;35045;51.194;7.268;2022-12-20T04:47:42;9.50;;;5.35;;
49217;SDS011;35045;51.194;7.268;2022-12-20T04:50:08;10.07;;;6.05;;
49217;SDS011;35045;51.194;7.268;2022-12-20T04:52:34;8.98;;;5.65;;
49217;SDS011;35045;51.194;7.268;2022-12-20T04:55:19;11.77;;;6.22;;
49217;SDS011;35045;51.194;7.268;2022-12-20T04:57:45;9.73;;;5.78;;
49217;SDS011;35045;51.194;7.268;2022-12-20T05:00:12;11.30;;;6.22;;
49217;SDS011;35045;51.194;7.268;2022-12-20T05:02:40;11.00;;;6.38;;
49217;SDS011;35045;51.194;7.268;2022-12-20T05:05:06;10.77;;;5.88;;
49217;SDS011;35045;51.194;7.268;2022-12-20T05:07:33;10.13;;;6.30;;
49217;SDS011;35045;51.194;7.268;2022-12-20T05:09:59;10.43;;;5.93;;
49217;SDS011;35045;51.194;7.268;2022-12-20T05:12:25;10.73;;;6.05;;
49217;SDS011;35045;51.194;7.268;2022-12-20T05:14:51;11.18;;;6.50;;
49217;SDS011;35045;51.194;7.268;2022-12-20T05:17:17;10.52;;;6.88;;
49217;SDS011;35045;51.194;7.268;2022-12-20T05:19:43;10.27;;;6.72;;
49217;SDS011;35045;51.194;7.268;2022-12-20T05:22:10;11.07;;;6.88;;
49217;SDS011;35045;51.194;7.268;2022-12-20T05:24:55;11.57;;;6.88;;
49217;SDS011;35045;51.194;7.268;2022-12-20T05:27:39;12.90;;;7.47;;
49217;SDS011;35045;51.194;7.268;2022-12-20T05:30:06;11.88;;;6.57;;
49217;SDS011;35045;51.194;7.268;2022-12-20T05:32:32;13.45;;;7.25;;
49217;SDS011;35045;51.194;7.268;2022-12-20T05:34:59;9.82;;;7.15;;
49217;SDS011;35045;51.194;7.268;2022-12-20T05:37:25;10.27;;;6.82;;
49217;SDS011;35045;51.194;7.268;2022-12-20T05:39:51;11.07;;;6.50;;
49217;SDS011;35045;51.194;7.268;2022-12-20T05:42:17;10.82;;;6.75;;
49217;SDS011;35045;51.194;7.268;2022-12-20T05:44:43;9.40;;;6.57;;
49217;SDS011;35045;51.194;7.268;2022-12-20T05:47:09;11.25;;;6.85;;
49217;SDS011;35045;51.194;7.268;2022-12-20T05:49:36;9.60;;;6.68;;
49217;SDS011;35045;51.194;7.268;2022-12-20T05:52:02;11.55;;;6.68;;
49217;SDS011;35045;51.194;7.268;2022-12-20T05:54:28;11.00;;;6.38;;
49217;SDS011;35045;51.194;7.268;2022-12-20T05:56:54;11.68;;;6.00;;
49217;SDS011;35045;51.194;7.268;2022-12-20T05:59:21;11.40;;;7.18;;
49217;SDS011;35045;51.194;7.268;2022-12-20T06:01:47;12.18;;;6.95;;
49217;SDS011;35045;51.194;7.268;2022-12-20T06:04:13;9.70;;;6.40;;
49217;SDS011;35045;51.194;7.268;2022-12-20T06:06:39;11.23;;;6.53;;
49217;SDS011;35045;51.194;7.268;2022-12-20T06:09:05;9.95;;;6.32;;
49217;SDS011;35045;51.194;7.268;2022-12-20T06:11:31;10.13;;;6.43;;
49217;SDS011;35045;51.194;7.268;2022-12-20T06:13:58;9.52;;;6.03;;
49217;SDS011;35045;51.194;7.268;2022-12-20T06:16:24;11.43;;;6.00;;
49217;SDS011;35045;51.194;7.268;2022-12-20T06:18:50;9.00;;;6.57;;
49217;SDS011;35045;51.194;7.268;2022-12-20T06:21:16;11.35;;;6.60;;
49217;SDS011;35045;51.194;7.268;2022-12-20T06:23:42;8.98;;;6.10;;
49217;SDS011;35045;51.194;7.268;2022-12-20T06:26:09;9.95;;;6.43;;
49217;SDS011;35045;51.194;7.268;2022-12-20T06:28:35;11.20;;;6.30;;
49217;SDS011;35045;51.194;7.268;2022-12-20T06:31:07;10.93;;;6.22;;
49217;SDS011;35045;51.194;7.268;2022-12-20T06:33:35;11.05;;;6.43;;
49217;SDS011;35045;51.194;7.268;2022-12-20T06:36:02;11.75;;;7.10;;
49217;SDS011;35045;51.194;7.268;2022-12-20T06:38:29;9.70;;;6.43;;
49217;SDS011;35045;51.194;7.268;2022-12-20T06:40:56;10.48;;;6.07;;
49217;SDS011;35045;51.194;7.268;2022-12-20T06:43:22;10.27;;;6.40;;
49217;SDS011;35045;51.194;7.268;2022-12-20T06:45:48;10.18;;;6.68;;
49217;SDS011;35045;51.194;7.268;2022-12-20T06:48:14;9.38;;;6.18;;
49217;SDS011;35045;51.194;7.268;2022-12-20T06:50:41;10.30;;;6.38;;
49217;SDS011;35045;51.194;7.268;2022-12-20T06:53:07;11.00;;;6.95;;
49217;SDS011;35045;51.194;7.268;2022-12-20T06:55:33;10.43;;;6.32;;
49217;SDS011;35045;51.194;7.268;2022-12-20T06:57:59;14.13;;;6.72;;
49217;SDS011;35045;51.194;7.268;2022-12-20T07:00:26;10.98;;;5.80;;
49217;SDS011;35045;51.194;7.268;2022-12-20T07:02:52;9.88;;;6.28;;
49217;SDS011;35045;51.194;7.268;2022-12-20T07:05:19;9.50;;;6.25;;
49217;SDS011;35045;51.194;7.268;2022-12-20T07:07:45;9.52;;;5.80;;
49217;SDS011;35045;51.194;7.268;2022-12-20T07:10:11;9.90;;;6.35;;
49217;SDS011;35045;51.194;7.268;2022-12-20T07:12:38;10.05;;;6.32;;
49217;SDS011;35045;51.194;7.268;2022-12-20T07:15:07;11.45;;;7.45;;
49217;SDS011;35045;51.194;7.268;2022-12-20T07:17:33;11.60;;;6.07;;
49217;SDS011;35045;51.194;7.268;2022-12-20T07:20:00;10.55;;;6.95;;
49217;SDS011;35045;51.194;7.268;2022-12-20T07:22:26;10.95;;;6.28;;
49217;SDS011;35045;51.194;7.268;2022-12-20T07:24:52;11.00;;;5.95;;
49217;SDS011;35045;51.194;7.268;2022-12-20T07:27:18;11.02;;;6.85;;
49217;SDS011;35045;51.194;7.268;2022-12-20T07:29:45;10.88;;;6.05;;
49217;SDS011;35045;51.194;7.268;2022-12-20T07:32:11;11.25;;;6.30;;
49217;SDS011;35045;51.194;7.268;2022-12-20T07:34:38;9.50;;;6.00;;
49217;SDS011;35045;51.194;7.268;2022-12-20T07:37:05;11.02;;;6.78;;
49217;SDS011;35045;51.194;7.268;2022-12-20T07:39:33;11.68;;;6.22;;
49217;SDS011;35045;51.194;7.268;2022-12-20T07:41:59;9.82;;;6.47;;
49217;SDS011;35045;51.194;7.268;2022-12-20T07:44:25;11.45;;;6.22;;
49217;SDS011;35045;51.194;7.268;2022-12-20T07:46:52;10.18;;;5.80;;
49217;SDS011;35045;51.194;7.268;2022-12-20T07:49:18;9.82;;;6.47;;
49217;SDS011;35045;51.194;7.268;2022-12-20T07:51:46;9.00;;;5.90;;
49217;SDS011;35045;51.194;7.268;2022-12-20T07:54:16;10.43;;;6.20;;
49217;SDS011;35045;51.194;7.268;2022-12-20T07:56:46;10.52;;;5.95;;
49217;SDS011;35045;51.194;7.268;2022-12-20T07:59:17;10.02;;;5.70;;
49217;SDS011;35045;51.194;7.268;2022-12-20T08:01:46;12.52;;;5.85;;
49217;SDS011;35045;51.194;7.268;2022-12-20T08:04:17;11.45;;;7.22;;
49217;SDS011;35045;51.194;7.268;2022-12-20T08:06:46;9.88;;;6.10;;
49217;SDS011;35045;51.194;7.268;2022-12-20T08:09:13;9.07;;;5.60;;
49217;SDS011;35045;51.194;7.268;2022-12-20T08:11:40;10.68;;;6.15;;
49217;SDS011;35045;51.194;7.268;2022-12-20T08:14:09;8.95;;;5.47;;
49217;SDS011;35045;51.194;7.268;2022-12-20T08:16:36;10.27;;;6.40;;
49217;SDS011;35045;51.194;7.268;2022-12-20T08:19:02;10.63;;;5.30;;
49217;SDS011;35045;51.194;7.268;2022-12-20T08:21:29;9.02;;;5.57;;
49217;SDS011;35045;51.194;7.268;2022-12-20T08:23:55;9.07;;;5.20;;
49217;SDS011;35045;51.194;7.268;2022-12-20T08:26:22;10.95;;;5.30;;
49217;SDS011;35045;51.194;7.268;2022-12-20T08:28:48;8.52;;;5.53;;
49217;SDS011;35045;51.194;7.268;2022-12-20T08:31:14;9.85;;;5.90;;
49217;SDS011;35045;51.194;7.268;2022-12-20T08:33:40;8.48;;;5.50;;
49217;SDS011;35045;51.194;7.268;2022-12-20T08:36:08;11.73;;;5.05;;
49217;SDS011;35045;51.194;7.268;2022-12-20T08:38:36;9.27;;;5.35;;
49217;SDS011;35045;51.194;7.268;2022-12-20T08:41:07;11.80;;;5.80;;
49217;SDS011;35045;51.194;7.268;2022-12-20T08:43:35;10.20;;;5.28;;
49217;SDS011;35045;51.194;7.268;2022-12-20T08:46:02;8.70;;;5.75;;
49217;SDS011;35045;51.194;7.268;2022-12-20T08:48:29;10.40;;;5.35;;
49217;SDS011;35045;51.194;7.268;2022-12-20T08:50:55;11.15;;;5.82;;
49217;SDS011;35045;51.194;7.268;2022-12-20T08:53:22;8.50;;;5.25;;
49217;SDS011;35045;51.194;7.268;2022-12-20T08:55:49;8.95;;;5.40;;
49217;SDS011;35045;51.194;7.268;2022-12-20T08:58:16;9.35;;;5.60;;
49217;SDS011;35045;51.194;7.268;2022-12-20T09:00:42;9.18;;;5.80;;
49217;SDS011;35045;51.194;7.268;2022-12-20T09:03:08;10.93;;;5.78;;
49217;SDS011;35045;51.194;7.268;2022-12-20T09:05:42;9.85;;;5.38;;
49217;SDS011;35045;51.194;7.268;2022-12-20T09:08:09;10.63;;;6.07;;
49217;SDS011;35045;51.194;7.268;2022-12-20T09:10:35;9.18;;;4.85;;
49217;SDS011;35045;51.194;7.268;2022-12-20T09:13:01;11.98;;;5.80;;
49217;SDS011;35045;51.194;7.268;2022-12-20T09:15:27;8.93;;;5.50;;
49217;SDS011;35045;51.194;7.268;2022-12-20T09:17:54;9.93;;;5.43;;
49217;SDS011;35045;51.194;7.268;2022-12-20T09:20:20;10.18;;;5.28;;
49217;SDS011;35045;51.194;7.268;2022-12-20T09:22:46;9.55;;;5.40;;
49217;SDS011;35045;51.194;7.268;2022-12-20T09:25:12;8.93;;;5.00;;
49217;SDS011;35045;51.194;7.268;2022-12-20T09:27:38;9.02;;;4.70;;
49217;SDS011;35045;51.194;7.268;2022-12-20T09:30:05;8.80;;;5.00;;
49217;SDS011;35045;51.194;7.268;2022-12-20T09:32:31;8.25;;;4.57;;
49217;SDS011;35045;51.194;7.268;2022-12-20T09:34:57;6.80;;;4.05;;
49217;SDS011;35045;51.194;7.268;2022-12-20T09:37:24;8.45;;;4.72;;
49217;SDS011;35045;51.194;7.268;2022-12-20T09:39:50;7.63;;;4.60;;
49217;SDS011;35045;51.194;7.268;2022-12-20T09:42:17;8.65;;;4.72;;
49217;SDS011;35045;51.194;7.268;2022-12-20T09:44:46;8.50;;;3.83;;
49217;SDS011;35045;51.194;7.268;2022-12-20T09:47:14;8.25;;;3.92;;
49217;SDS011;35045;51.194;7.268;2022-12-20T09:49:46;9.18;;;4.32;;
49217;SDS011;35045;51.194;7.268;2022-12-20T10:01:30;7.03;;;4.10;;
49217;SDS011;35045;51.194;7.268;2022-12-20T10:04:04;8.43;;;4.50;;
49217;SDS011;35045;51.194;7.268;2022-12-20T10:14:40;7.40;;;3.60;;
49217;SDS011;35045;51.194;7.268;2022-12-20T10:25:20;7.57;;;3.50;;
49217;SDS011;35045;51.194;7.268;2022-12-20T10:27:49;9.00;;;4.32;;
49217;SDS011;35045;51.194;7.268;2022-12-20T10:30:20;8.57;;;4.35;;
49217;SDS011;35045;51.194;7.268;2022-12-20T10:32:48;9.82;;;4.30;;
49217;SDS011;35045;51.194;7.268;2022-12-20T10:35:24;8.90;;;4.47;;
49217;SDS011;35045;51.194;7.268;2022-12-20T10:37:57;9.38;;;3.80;;
49217;SDS011;35045;51.194;7.268;2022-12-20T10:40:33;7.60;;;3.90;;
49217;SDS011;35045;51.194;7.268;2022-12-20T10:43:19;11.68;;;4.40;;
49217;SDS011;35045;51.194;7.268;2022-12-20T10:45:55;8.48;;;4.00;;
49217;SDS011;35045;51.194;7.268;2022-12-20T10:48:28;8.65;;;3.95;;
49217;SDS011;35045;51.194;7.268;2022-12-20T10:50:55;11.73;;;3.78;;
49217;SDS011;35045;51.194;7.268;2022-12-20T10:53:24;7.57;;;4.10;;
49217;SDS011;35045;51.194;7.268;2022-12-20T10:55:52;8.45;;;3.85;;
49217;SDS011;35045;51.194;7.268;2022-12-20T10:58:30;6.57;;;3.63;;
49217;SDS011;35045;51.194;7.268;2022-12-20T11:03:38;7.70;;;3.60;;
49217;SDS011;35045;51.194;7.268;2022-12-20T11:09:13;7.78;;;3.90;;
49217;SDS011;35045;51.194;7.268;2022-12-20T11:14:34;6.47;;;3.70;;
49217;SDS011;35045;51.194;7.268;2022-12-20T11:17:04;7.25;;;3.47;;
49217;SDS011;35045;51.194;7.268;2022-12-20T11:20:14;7.27;;;3.77;;
49217;SDS011;35045;51.194;7.268;2022-12-20T11:25:55;7.85;;;3.60;;
49217;SDS011;35045;51.194;7.268;2022-12-20T11:28:50;6.75;;;2.97;;
49217;SDS011;35045;51.194;7.268;2022-12-20T11:42:27;7.47;;;3.67;;
49217;SDS011;35045;51.194;7.268;2022-12-20T11:48:04;6.80;;;3.30;;
49217;SDS011;35045;51.194;7.268;2022-12-20T11:50:48;8.20;;;3.70;;
49217;SDS011;35045;51.194;7.268;2022-12-20T11:53:42;9.50;;;3.53;;
49217;SDS011;35045;51.194;7.268;2022-12-20T11:56:23;6.70;;;3.40;;
49217;SDS011;35045;51.194;7.268;2022-12-20T11:59:02;8.02;;;3.55;;
49217;SDS011;35045;51.194;7.268;2022-12-20T12:04:38;7.50;;;3.30;;
49217;SDS011;35045;51.194;7.268;2022-12-20T12:07:15;7.50;;;3.50;;
49217;SDS011;35045;51.194;7.268;2022-12-20T12:12:21;6.55;;;3.50;;
49217;SDS011;35045;51.194;7.268;2022-12-20T12:23:01;6.60;;;3.55;;
49217;SDS011;35045;51.194;7.268;2022-12-20T12:25:46;7.35;;;3.35;;
49217;SDS011;35045;51.194;7.268;2022-12-20T12:28:13;7.32;;;3.40;;
49217;SDS011;35045;51.194;7.268;2022-12-20T12:30:42;7.97;;;3.15;;
49217;SDS011;35045;51.194;7.268;2022-12-20T12:33:16;8.52;;;3.70;;
49217;SDS011;35045;51.194;7.268;2022-12-20T12:41:01;7.57;;;3.40;;
49217;SDS011;35045;51.194;7.268;2022-12-20T12:46:10;10.00;;;3.33;;
49217;SDS011;35045;51.194;7.268;2022-12-20T12:51:07;7.07;;;3.60;;
49217;SDS011;35045;51.194;7.268;2022-12-20T12:53:48;6.60;;;2.92;;
49217;SDS011;35045;51.194;7.268;2022-12-20T12:59:08;8.15;;;3.45;;
49217;SDS011;35045;51.194;7.268;2022-12-20T13:01:46;7.55;;;3.58;;
49217;SDS011;35045;51.194;7.268;2022-12-20T13:07:48;9.18;;;3.63;;
49217;SDS011;35045;51.194;7.268;2022-12-20T13:12:47;9.60;;;3.97;;
49217;SDS011;35045;51.194;7.268;2022-12-20T13:20:38;5.80;;;3.40;;
49217;SDS011;35045;51.194;7.268;2022-12-20T13:25:34;7.93;;;3.30;;
49217;SDS011;35045;51.194;7.268;2022-12-20T13:31:33;8.93;;;4.03;;
49217;SDS011;35045;51.194;7.268;2022-12-20T13:41:20;9.32;;;4.40;;
49217;SDS011;35045;51.194;7.268;2022-12-20T13:44:07;9.20;;;3.90;;
49217;SDS011;35045;51.194;7.268;2022-12-20T13:51:39;6.85;;;3.75;;
49217;SDS011;35045;51.194;7.268;2022-12-20T13:54:06;9.15;;;4.35;;
49217;SDS011;35045;51.194;7.268;2022-12-20T13:56:41;8.05;;;3.67;;
49217;SDS011;35045;51.194;7.268;2022-12-20T14:01:53;7.25;;;3.65;;
49217;SDS011;35045;51.194;7.268;2022-12-20T14:04:22;7.57;;;4.13;;
49217;SDS011;35045;51.194;7.268;2022-12-20T14:06:52;9.13;;;4.53;;
49217;SDS011;35045;51.194;7.268;2022-12-20T14:09:26;9.35;;;4.20;;
49217;SDS011;35045;51.194;7.268;2022-12-20T14:12:01;7.47;;;3.90;;
49217;SDS011;35045;51.194;7.268;2022-12-20T14:14:35;8.27;;;4.28;;
49217;SDS011;35045;51.194;7.268;2022-12-20T14:22:49;7.60;;;3.95;;
49217;SDS011;35045;51.194;7.268;2022-12-20T14:28:15;7.80;;;3.97;;
49217;SDS011;35045;51.194;7.268;2022-12-20T14:30:46;8.57;;;3.33;;
49217;SDS011;35045;51.194;7.268;2022-12-20T14:33:16;7.70;;;4.10;;
49217;SDS011;35045;51.194;7.268;2022-12-20T14:36:34;8.30;;;4.10;;
49217;SDS011;35045;51.194;7.268;2022-12-20T14:38:55;7.53;;;3.90;;
49217;SDS011;35045;51.194;7.268;2022-12-20T14:44:01;7.90;;;3.63;;
49217;SDS011;35045;51.194;7.268;2022-12-20T14:46:46;7.85;;;3.60;;
49217;SDS011;35045;51.194;7.268;2022-12-20T14:49:24;9.55;;;3.75;;
49217;SDS011;35045;51.194;7.268;2022-12-20T14:52:12;8.13;;;3.72;;
49217;SDS011;35045;51.194;7.268;2022-12-20T14:57:37;8.10;;;3.63;;
49217;SDS011;35045;51.194;7.268;2022-12-20T15:02:39;7.90;;;3.88;;
49217;SDS011;35045;51.194;7.268;2022-12-20T15:08:20;9.07;;;3.65;;
49217;SDS011;35045;51.194;7.268;2022-12-20T15:10:56;6.90;;;3.80;;
49217;SDS011;35045;51.194;7.268;2022-12-20T15:13:26;8.38;;;3.75;;
49217;SDS011;35045;51.194;7.268;2022-12-20T15:15:54;8.52;;;3.17;;
49217;SDS011;35045;51.194;7.268;2022-12-20T15:18:20;8.40;;;3.92;;
49217;SDS011;35045;51.194;7.268;2022-12-20T15:20:48;6.18;;;3.22;;
49217;SDS011;35045;51.194;7.268;2022-12-20T15:23:24;7.38;;;3.20;;
49217;SDS011;35045;51.194;7.268;2022-12-20T15:25:50;7.28;;;3.30;;
49217;SDS011;35045;51.194;7.268;2022-12-20T15:28:20;7.90;;;3.75;;
49217;SDS011;35045;51.194;7.268;2022-12-20T15:30:48;8.55;;;3.20;;
49217;SDS011;35045;51.194;7.268;2022-12-20T15:33:22;9.68;;;3.47;;
49217;SDS011;35045;51.194;7.268;2022-12-20T15:35:55;7.88;;;3.38;;
49217;SDS011;35045;51.194;7.268;2022-12-20T15:38:22;6.78;;;3.33;;
49217;SDS011;35045;51.194;7.268;2022-12-20T15:41:01;9.13;;;3.42;;
49217;SDS011;35045;51.194;7.268;2022-12-20T15:43:30;7.75;;;3.45;;
49217;SDS011;35045;51.194;7.268;2022-12-20T15:46:01;7.40;;;3.65;;
49217;SDS011;35045;51.194;7.268;2022-12-20T15:48:28;6.78;;;3.28;;
49217;SDS011;35045;51.194;7.268;2022-12-20T15:50:57;7.38;;;4.18;;
49217;SDS011;35045;51.194;7.268;2022-12-20T15:53:29;8.57;;;3.53;;
49217;SDS011;35045;51.194;7.268;2022-12-20T15:55:57;7.68;;;3.42;;
49217;SDS011;35045;51.194;7.268;2022-12-20T15:58:24;9.32;;;3.90;;
49217;SDS011;35045;51.194;7.268;2022-12-20T16:00:54;8.00;;;3.83;;
49217;SDS011;35045;51.194;7.268;2022-12-20T16:03:26;11.90;;;8.65;;
49217;SDS011;35045;51.194;7.268;2022-12-20T16:05:55;15.95;;;12.85;;
49217;SDS011;35045;51.194;7.268;2022-12-20T16:08:22;13.73;;;10.10;;
49217;SDS011;35045;51.194;7.268;2022-12-20T16:10:49;25.40;;;17.92;;
49217;SDS011;35045;51.194;7.268;2022-12-20T16:13:23;19.95;;;13.57;;
49217;SDS011;35045;51.194;7.268;2022-12-20T16:15:51;15.38;;;11.80;;
49217;SDS011;35045;51.194;7.268;2022-12-20T16:18:17;9.30;;;6.13;;
49217;SDS011;35045;51.194;7.268;2022-12-20T16:20:43;11.77;;;7.55;;
49217;SDS011;35045;51.194;7.268;2022-12-20T16:23:16;14.07;;;10.40;;
49217;SDS011;35045;51.194;7.268;2022-12-20T16:25:44;10.90;;;8.25;;
49217;SDS011;35045;51.194;7.268;2022-12-20T16:28:11;10.82;;;7.30;;
49217;SDS011;35045;51.194;7.268;2022-12-20T16:30:37;11.18;;;8.35;;
49217;SDS011;35045;51.194;7.268;2022-12-20T16:33:03;7.85;;;4.53;;
49217;SDS011;35045;51.194;7.268;2022-12-20T16:35:33;9.48;;;6.13;;
49217;SDS011;35045;51.194;7.268;2022-12-20T16:38:03;10.18;;;6.93;;
49217;SDS011;35045;51.194;7.268;2022-12-20T16:40:30;7.32;;;4.72;;
49217;SDS011;35045;51.194;7.268;2022-12-20T16:42:57;10.63;;;5.82;;
49217;SDS011;35045;51.194;7.268;2022-12-20T16:45:28;8.55;;;5.40;;
49217;SDS011;35045;51.194;7.268;2022-12-20T16:47:56;8.93;;;4.75;;
49217;SDS011;35045;51.194;7.268;2022-12-20T16:50:23;9.10;;;5.05;;
49217;SDS011;35045;51.194;7.268;2022-12-20T16:52:52;8.40;;;5.43;;
49217;SDS011;35045;51.194;7.268;2022-12-20T16:55:22;10.35;;;6.47;;
49217;SDS011;35045;51.194;7.268;2022-12-20T16:57:50;8.60;;;5.57;;
49217;SDS011;35045;51.194;7.268;2022-12-20T17:00:19;8.50;;;4.25;;
49217;SDS011;35045;51.194;7.268;2022-12-20T17:02:47;10.57;;;9.32;;
49217;SDS011;35045;51.194;7.268;2022-12-20T17:05:48;8.52;;;5.97;;
49217;SDS011;35045;51.194;7.268;2022-12-20T17:08:07;9.95;;;5.65;;
49217;SDS011;35045;51.194;7.268;2022-12-20T17:10:51;7.57;;;4.00;;
49217;SDS011;35045;51.194;7.268;2022-12-20T17:13:17;7.15;;;3.63;;
49217;SDS011;35045;51.194;7.268;2022-12-20T17:15:43;7.50;;;4.20;;
49217;SDS011;35045;51.194;7.268;2022-12-20T17:18:12;10.32;;;4.95;;
49217;SDS011;35045;51.194;7.268;2022-12-20T17:20:39;10.93;;;5.68;;
49217;SDS011;35045;51.194;7.268;2022-12-20T17:23:07;8.35;;;4.20;;